LFLS/GNB METAR and TAF weather

Enter ICAO airport designator
Station Type Date Time Source
LFLS METAR 2020/07/11 00:00 UTC NOAA

LFLS 110000Z AUTO 24004KT 200V290 9999 FEW022 BKN046 BKN110 18/14 Q1020


Station Type Date Time Source
LFLS Decoded METAR 2020/07/11 00:00 UTC NOAA

Grenoble / St. Geoirs, France (LFLS) 45-22N 005-20E 386M
Jul 10, 2020 - 08:00 PM EDT / 2020.07.11 0000 UTC
Wind: from the WSW (240 degrees) at 5 MPH (4 KT) (direction variable):0
Visibility: greater than 7 mile(s):0
Sky conditions: mostly cloudy
Temperature: 64 F (18 C)
Dew Point: 57 F (14 C)
Relative Humidity: 77%
Pressure (altimeter): 30.12 in. Hg (1020 hPa)
ob: LFLS 110000Z AUTO 24004KT 200V290 9999 FEW022 BKN046 BKN110 18/14 Q1020
cycle: 0

Station Type Date Time Source
LFLS TAF 2020/07/10 19:06 UTC NOAA

TAF LFLS 101902Z 1019/1115 CNL

Example: see airport list